createdAt,value
2023-03-10T00:02:23.713Z,1.33
2023-03-10T00:04:53.089Z,1.17
2023-03-10T00:07:20.392Z,1.75
2023-03-10T00:09:47.140Z,1.33
2023-03-10T00:12:13.915Z,1.27
2023-03-10T00:14:40.338Z,1.20
2023-03-10T00:17:07.267Z,1.00
2023-03-10T00:19:33.687Z,1.30
2023-03-10T00:22:00.440Z,1.40
2023-03-10T00:24:27.297Z,1.65
2023-03-10T00:26:53.758Z,1.02
2023-03-10T00:29:20.311Z,1.35
2023-03-10T00:31:46.832Z,1.30
2023-03-10T00:34:13.646Z,0.85
2023-03-10T00:36:40.455Z,1.23
2023-03-10T00:39:10.763Z,1.33
2023-03-10T00:41:39.127Z,0.80
2023-03-10T00:44:06.816Z,0.80
2023-03-10T00:46:34.316Z,0.73
2023-03-10T00:49:00.952Z,1.00
2023-03-10T00:51:28.315Z,1.10
2023-03-10T00:53:55.133Z,1.00
2023-03-10T00:56:24.370Z,1.00
2023-03-10T00:58:53.090Z,1.00
2023-03-10T01:01:23.911Z,0.80
2023-03-10T01:03:52.074Z,0.60
2023-03-10T01:06:19.035Z,0.70
2023-03-10T01:08:45.457Z,0.70
2023-03-10T01:11:24.541Z,0.80
2023-03-10T01:13:52.335Z,0.77
2023-03-10T01:16:19.471Z,0.68
2023-03-10T01:18:45.930Z,0.70
2023-03-10T01:21:21.472Z,0.75
2023-03-10T01:23:48.985Z,0.70
2023-03-10T01:26:17.360Z,0.50
2023-03-10T01:28:45.583Z,0.80
2023-03-10T01:31:12.747Z,0.90
2023-03-10T01:33:41.011Z,0.50
2023-03-10T01:36:09.374Z,0.50
2023-03-10T01:38:36.588Z,0.60
2023-03-10T01:41:03.456Z,0.50
2023-03-10T01:43:48.174Z,0.50
2023-03-10T01:46:32.601Z,0.53
2023-03-10T01:49:14.330Z,0.40
2023-03-10T01:51:45.833Z,0.70
2023-03-10T01:54:20.361Z,0.50
2023-03-10T01:56:49.201Z,0.60
2023-03-10T01:59:15.661Z,0.50
2023-03-10T02:04:23.657Z,0.50
2023-03-10T02:06:52.127Z,0.52
2023-03-10T02:09:20.781Z,1.00
2023-03-10T02:11:48.190Z,0.70
2023-03-10T02:14:15.079Z,0.50
2023-03-10T02:16:41.718Z,0.57
2023-03-10T02:19:31.763Z,0.40
2023-03-10T02:22:05.070Z,0.47
2023-03-10T02:24:53.995Z,0.50
2023-03-10T02:27:27.350Z,0.43
2023-03-10T02:30:00.640Z,0.50
2023-03-10T02:32:30.656Z,0.60
2023-03-10T02:34:57.775Z,0.50
2023-03-10T02:37:30.427Z,0.50
2023-03-10T02:39:57.233Z,0.60
2023-03-10T02:42:26.724Z,0.50
2023-03-10T02:44:53.975Z,0.52
2023-03-10T02:47:20.824Z,0.80
2023-03-10T02:49:47.267Z,0.47
2023-03-10T02:52:41.416Z,0.50
2023-03-10T02:55:08.178Z,0.55
2023-03-10T02:57:34.787Z,0.68
2023-03-10T03:00:01.183Z,1.05
2023-03-10T03:02:27.615Z,0.70
2023-03-10T03:04:54.003Z,0.98
2023-03-10T03:07:20.635Z,0.82
2023-03-10T03:09:47.013Z,0.55
2023-03-10T03:12:13.761Z,0.65
2023-03-10T03:14:40.237Z,0.90
2023-03-10T03:17:06.744Z,1.00
2023-03-10T03:19:33.242Z,0.80
2023-03-10T03:21:59.664Z,0.82
2023-03-10T03:24:26.307Z,0.90
2023-03-10T03:26:52.859Z,1.15
2023-03-10T03:29:19.795Z,0.90
2023-03-10T03:31:46.271Z,0.70
2023-03-10T03:34:13.142Z,1.02
2023-03-10T03:36:39.702Z,0.98
2023-03-10T03:39:07.005Z,1.40
2023-03-10T03:41:34.397Z,0.70
2023-03-10T03:44:00.873Z,0.82
2023-03-10T03:46:27.498Z,1.00
2023-03-10T03:48:53.943Z,0.90
2023-03-10T03:51:20.476Z,1.00
2023-03-10T03:53:46.836Z,1.00
2023-03-10T03:56:13.448Z,0.80
2023-03-10T03:58:40.053Z,1.63
2023-03-10T04:01:06.441Z,0.80
2023-03-10T04:03:32.896Z,0.85
2023-03-10T04:05:59.444Z,0.90
2023-03-10T04:08:25.939Z,1.00
2023-03-10T04:10:54.044Z,1.35
2023-03-10T04:13:20.838Z,1.00
2023-03-10T04:15:47.309Z,1.20
2023-03-10T04:18:13.682Z,1.30
2023-03-10T04:20:40.433Z,1.30
2023-03-10T04:23:07.185Z,1.77
2023-03-10T04:25:33.596Z,1.38
2023-03-10T04:28:00.037Z,1.10
2023-03-10T04:30:29.650Z,1.50
2023-03-10T04:33:01.141Z,1.40
2023-03-10T04:35:28.889Z,1.10
2023-03-10T04:37:55.342Z,1.30
2023-03-10T04:40:21.967Z,1.35
2023-03-10T04:42:48.404Z,1.00
2023-03-10T04:45:15.000Z,1.48
2023-03-10T04:47:41.597Z,1.20
2023-03-10T04:50:09.974Z,1.15
2023-03-10T04:52:36.341Z,1.40
2023-03-10T04:55:03.583Z,1.40
2023-03-10T04:57:30.062Z,1.38
2023-03-10T04:59:56.492Z,2.72
2023-03-10T05:02:22.900Z,1.60
2023-03-10T05:04:49.811Z,0.95
2023-03-10T05:07:16.289Z,1.10
2023-03-10T05:09:42.721Z,1.10
2023-03-10T05:12:10.203Z,1.05
2023-03-10T05:14:38.318Z,1.45
2023-03-10T05:17:04.956Z,1.23
2023-03-10T05:19:34.363Z,1.27
2023-03-10T05:22:01.745Z,1.20
2023-03-10T05:24:28.478Z,1.38
2023-03-10T05:26:54.877Z,1.10
2023-03-10T05:29:21.629Z,1.02
2023-03-10T05:31:48.123Z,1.40
2023-03-10T05:34:15.204Z,1.63
2023-03-10T05:36:43.097Z,1.73
2023-03-10T05:39:10.901Z,1.17
2023-03-10T05:41:38.013Z,1.65
2023-03-10T05:44:04.580Z,1.58
2023-03-10T05:46:31.551Z,1.30
2023-03-10T05:48:58.015Z,2.13
2023-03-10T05:51:24.519Z,28.83
2023-03-10T05:53:50.877Z,15.15
2023-03-10T05:56:19.357Z,5.13
2023-03-10T05:58:46.808Z,3.03
2023-03-10T06:01:13.765Z,2.13
2023-03-10T06:03:40.629Z,2.42
2023-03-10T06:06:07.662Z,2.13
2023-03-10T06:08:34.496Z,1.70
2023-03-10T06:11:00.974Z,1.73
2023-03-10T06:13:27.813Z,2.03
2023-03-10T06:16:01.824Z,1.50
2023-03-10T06:18:29.444Z,1.73
2023-03-10T06:20:56.840Z,1.90
2023-03-10T06:23:24.501Z,2.40
2023-03-10T06:26:07.164Z,1.92
2023-03-10T06:28:36.610Z,1.77
2023-03-10T06:31:07.127Z,1.77
2023-03-10T06:33:34.659Z,1.83
2023-03-10T06:36:01.705Z,1.83
2023-03-10T06:38:28.714Z,1.80
2023-03-10T06:40:55.151Z,2.17
2023-03-10T06:43:21.610Z,1.67
2023-03-10T06:45:49.969Z,1.70
2023-03-10T06:48:17.167Z,1.90
2023-03-10T06:50:47.824Z,1.52
2023-03-10T06:53:16.692Z,2.53
2023-03-10T06:55:43.082Z,1.67
2023-03-10T06:58:09.501Z,2.25
2023-03-10T07:00:35.861Z,1.92
2023-03-10T07:03:02.242Z,2.10
2023-03-10T07:05:28.632Z,1.52
2023-03-10T07:07:55.567Z,1.48
2023-03-10T07:10:22.771Z,1.60
2023-03-10T07:12:55.059Z,1.55
2023-03-10T07:15:25.743Z,2.13
2023-03-10T07:17:52.806Z,1.85
2023-03-10T07:20:19.360Z,1.60
2023-03-10T07:22:45.749Z,1.40
2023-03-10T07:25:12.201Z,1.20
2023-03-10T07:27:38.880Z,1.42
2023-03-10T07:30:05.983Z,1.15
2023-03-10T07:32:32.696Z,1.25
2023-03-10T07:34:59.200Z,1.15
2023-03-10T07:37:25.646Z,1.40
2023-03-10T07:39:54.381Z,1.90
2023-03-10T07:42:21.036Z,1.50
2023-03-10T07:44:47.427Z,1.52
2023-03-10T07:47:13.788Z,1.30
2023-03-10T07:49:46.311Z,1.25
2023-03-10T07:52:16.207Z,1.88
2023-03-10T07:54:44.488Z,1.88
2023-03-10T07:57:15.532Z,1.42
2023-03-10T07:59:42.614Z,1.80
2023-03-10T08:02:13.118Z,1.42
2023-03-10T08:04:40.843Z,1.80
2023-03-10T08:07:08.500Z,1.50
2023-03-10T08:09:35.644Z,1.60
2023-03-10T08:12:03.346Z,1.67
2023-03-10T08:14:31.358Z,1.40
2023-03-10T08:16:58.540Z,1.50
2023-03-10T08:19:26.611Z,1.52
2023-03-10T08:21:57.646Z,1.52
2023-03-10T08:24:25.960Z,1.48
2023-03-10T08:26:52.382Z,1.60
2023-03-10T08:29:18.984Z,1.27
2023-03-10T08:31:45.524Z,1.23
2023-03-10T08:34:12.349Z,1.35
2023-03-10T08:36:40.080Z,1.42
2023-03-10T08:39:07.784Z,1.10
2023-03-10T08:41:38.287Z,1.30
2023-03-10T08:44:05.498Z,0.95
2023-03-10T08:46:33.119Z,1.13
2023-03-10T08:49:00.404Z,1.20
2023-03-10T08:51:28.103Z,1.55
2023-03-10T08:53:55.171Z,1.17
2023-03-10T08:56:23.008Z,1.30
2023-03-10T08:58:49.811Z,1.20
2023-03-10T09:01:17.445Z,1.30
2023-03-10T09:03:45.616Z,1.05
2023-03-10T09:06:13.781Z,1.02
2023-03-10T09:08:41.228Z,1.90
2023-03-10T09:11:09.167Z,1.20
2023-03-10T09:13:35.552Z,1.20
2023-03-10T09:16:01.962Z,1.63
2023-03-10T09:18:28.521Z,1.42
2023-03-10T09:20:54.955Z,1.25
2023-03-10T09:23:21.462Z,1.00
2023-03-10T09:25:48.813Z,1.60
2023-03-10T09:28:17.477Z,1.17
2023-03-10T09:30:45.363Z,1.35
2023-03-10T09:33:20.500Z,1.05
2023-03-10T09:38:32.210Z,1.00
2023-03-10T09:41:09.893Z,1.50
2023-03-10T09:43:50.721Z,1.15
2023-03-10T09:46:23.454Z,0.90
2023-03-10T09:49:09.428Z,1.10
2023-03-10T09:51:41.056Z,1.13
2023-03-10T09:54:13.094Z,1.13
2023-03-10T09:56:39.534Z,1.60
2023-03-10T09:59:16.900Z,1.02
2023-03-10T10:01:47.212Z,1.15
2023-03-10T10:04:18.589Z,0.70
2023-03-10T10:06:47.066Z,1.17
2023-03-10T10:09:42.609Z,1.50
2023-03-10T10:12:18.083Z,1.13
2023-03-10T10:14:55.270Z,1.10
2023-03-10T10:17:56.794Z,0.90
2023-03-10T10:20:34.901Z,0.80
2023-03-10T10:23:01.275Z,1.10
2023-03-10T10:25:31.960Z,0.85
2023-03-10T10:28:01.337Z,1.00
2023-03-10T10:30:37.312Z,0.80
2023-03-10T10:33:06.205Z,0.80
2023-03-10T10:35:39.410Z,1.02
2023-03-10T10:38:13.254Z,1.02
2023-03-10T10:41:02.647Z,1.05
2023-03-10T10:43:31.982Z,1.20
2023-03-10T10:46:08.198Z,0.70
2023-03-10T10:48:44.057Z,1.00
2023-03-10T10:51:20.948Z,0.93
2023-03-10T10:53:48.188Z,1.08
2023-03-10T10:56:17.451Z,0.95
2023-03-10T10:59:00.181Z,1.10
2023-03-10T11:01:27.058Z,0.88
2023-03-10T11:04:07.039Z,0.90
2023-03-10T11:06:34.837Z,0.98
2023-03-10T11:09:12.460Z,0.88
2023-03-10T11:11:49.944Z,0.82
2023-03-10T11:14:16.275Z,1.00
2023-03-10T11:16:51.092Z,1.08
2023-03-10T11:19:49.758Z,0.50
2023-03-10T11:22:19.164Z,0.85
2023-03-10T11:25:10.037Z,0.80
2023-03-10T11:27:46.223Z,0.70
2023-03-10T11:30:18.328Z,0.52
2023-03-10T11:32:59.503Z,0.85
2023-03-10T11:35:49.272Z,0.80
2023-03-10T11:38:18.655Z,0.95
2023-03-10T11:40:58.554Z,0.80
2023-03-10T11:43:30.020Z,0.70
2023-03-10T11:46:00.698Z,0.52
2023-03-10T11:48:43.120Z,0.70
2023-03-10T11:51:23.155Z,0.80
2023-03-10T11:53:55.309Z,1.58
2023-03-10T11:56:24.147Z,0.90
2023-03-10T11:59:13.633Z,0.70
2023-03-10T12:02:07.367Z,0.90
2023-03-10T12:04:47.330Z,0.70
2023-03-10T12:07:27.110Z,0.85
2023-03-10T12:09:57.586Z,0.70
2023-03-10T12:12:32.203Z,0.82
2023-03-10T12:15:01.419Z,0.70
2023-03-10T12:17:28.600Z,0.80
2023-03-10T12:20:32.952Z,0.70
2023-03-10T12:23:00.292Z,0.65
2023-03-10T12:25:29.766Z,0.80
2023-03-10T12:28:18.003Z,0.80
2023-03-10T12:30:51.030Z,0.98
2023-03-10T12:33:39.547Z,1.35
2023-03-10T12:36:17.953Z,1.27
2023-03-10T12:38:53.976Z,0.60
2023-03-10T12:41:26.291Z,0.85
2023-03-10T12:43:54.328Z,1.05
2023-03-10T12:46:40.905Z,1.20
2023-03-10T12:49:12.992Z,1.05
2023-03-10T12:51:44.418Z,0.52
2023-03-10T12:54:47.829Z,0.80
2023-03-10T12:57:22.406Z,0.80
2023-03-10T13:00:20.168Z,0.90
2023-03-10T13:02:51.454Z,0.70
2023-03-10T13:05:32.743Z,0.90
2023-03-10T13:08:13.118Z,0.98
2023-03-10T13:10:39.960Z,0.98
2023-03-10T13:13:08.956Z,0.68
2023-03-10T13:15:36.120Z,1.02
2023-03-10T13:18:21.063Z,1.00
2023-03-10T13:20:48.574Z,0.90
2023-03-10T13:23:29.781Z,0.82
2023-03-10T13:26:01.505Z,0.70
2023-03-10T13:28:31.030Z,0.70
2023-03-10T13:31:18.138Z,1.00
2023-03-10T13:33:53.257Z,0.80
2023-03-10T13:36:31.857Z,0.70
2023-03-10T13:39:01.193Z,0.80
2023-03-10T13:41:28.162Z,1.13
2023-03-10T13:43:55.012Z,0.82
2023-03-10T13:46:26.832Z,0.80
2023-03-10T13:48:55.358Z,0.70
2023-03-10T13:51:21.756Z,0.82
2023-03-10T13:53:52.699Z,0.60
2023-03-10T13:56:29.043Z,0.63
2023-03-10T13:59:02.622Z,0.70
2023-03-10T14:01:32.679Z,0.68
2023-03-10T14:04:05.614Z,0.68
2023-03-10T14:06:32.787Z,0.65
2023-03-10T14:09:17.924Z,0.60
2023-03-10T14:11:46.902Z,0.55
2023-03-10T14:14:26.249Z,0.57
2023-03-10T14:16:56.258Z,0.65
2023-03-10T14:19:39.424Z,0.50
2023-03-10T14:22:37.990Z,0.60
2023-03-10T14:25:16.532Z,0.60
2023-03-10T14:27:56.469Z,0.60
2023-03-10T14:32:48.308Z,0.60
2023-03-10T14:35:17.150Z,0.50
2023-03-10T14:37:43.566Z,0.50
2023-03-10T14:40:10.853Z,0.50
2023-03-10T14:42:39.618Z,0.50
2023-03-10T14:45:31.276Z,0.50
2023-03-10T14:47:59.875Z,0.40
2023-03-10T14:50:28.084Z,0.50
2023-03-10T14:52:54.623Z,0.40
2023-03-10T14:55:21.763Z,0.50
2023-03-10T14:57:58.719Z,0.63
2023-03-10T15:00:25.392Z,0.70
2023-03-10T15:02:51.774Z,0.60
2023-03-10T15:05:21.516Z,0.70
2023-03-10T15:07:51.644Z,0.50
2023-03-10T15:10:20.986Z,0.70
2023-03-10T15:12:49.984Z,0.70
2023-03-10T15:15:18.194Z,0.70
2023-03-10T15:17:45.302Z,0.70
2023-03-10T15:20:20.568Z,0.60
2023-03-10T15:22:47.336Z,0.70
2023-03-10T15:25:16.106Z,0.47
2023-03-10T15:27:43.243Z,0.70
2023-03-10T15:30:17.989Z,0.60
2023-03-10T15:32:44.700Z,1.35
2023-03-10T15:35:12.284Z,0.80
2023-03-10T15:37:39.596Z,0.70
2023-03-10T15:40:07.064Z,0.93
2023-03-10T15:42:33.803Z,0.90
2023-03-10T15:45:00.679Z,0.85
2023-03-10T15:47:28.141Z,0.80
2023-03-10T15:49:54.527Z,0.90
2023-03-10T15:52:23.251Z,0.98
2023-03-10T15:54:49.971Z,1.00
2023-03-10T15:57:16.593Z,0.90
2023-03-10T15:59:43.206Z,1.10
2023-03-10T16:02:11.890Z,1.00
2023-03-10T16:04:38.478Z,0.90
2023-03-10T16:07:05.185Z,0.98
2023-03-10T16:09:33.052Z,1.00
2023-03-10T16:11:59.515Z,0.93
2023-03-10T16:14:26.289Z,1.00
2023-03-10T16:16:53.326Z,0.98
2023-03-10T16:19:19.961Z,1.13
2023-03-10T16:21:46.778Z,1.02
2023-03-10T16:24:13.511Z,1.02
2023-03-10T16:26:42.060Z,1.10
2023-03-10T16:29:09.378Z,1.17
2023-03-10T16:31:35.903Z,0.90
2023-03-10T16:34:02.407Z,1.00
2023-03-10T16:36:29.542Z,1.02
2023-03-10T16:38:57.729Z,0.80
2023-03-10T16:41:24.636Z,0.80
2023-03-10T16:43:52.203Z,0.73
2023-03-10T16:46:26.137Z,0.60
2023-03-10T16:48:54.575Z,0.63
2023-03-10T16:51:37.551Z,0.60
2023-03-10T16:54:12.877Z,0.70
2023-03-10T16:56:51.069Z,0.70
2023-03-10T16:59:24.539Z,0.70
2023-03-10T17:01:51.689Z,0.60
2023-03-10T17:04:19.185Z,0.60
2023-03-10T17:06:46.687Z,0.50
2023-03-10T17:09:15.345Z,0.70
2023-03-10T17:11:46.481Z,0.60
2023-03-10T17:14:15.593Z,0.80
2023-03-10T17:16:45.661Z,0.88
2023-03-10T17:19:30.258Z,0.52
2023-03-10T17:21:58.193Z,0.60
2023-03-10T17:24:25.083Z,0.60
2023-03-10T17:26:51.742Z,0.75
2023-03-10T17:29:18.287Z,0.70
2023-03-10T17:31:48.730Z,0.88
2023-03-10T17:34:15.200Z,1.00
2023-03-10T17:36:41.733Z,1.30
2023-03-10T17:39:08.557Z,2.13
2023-03-10T17:41:36.245Z,2.60
2023-03-10T17:44:06.150Z,2.88
2023-03-10T17:46:32.856Z,3.40
2023-03-10T17:49:00.230Z,4.32
2023-03-10T17:51:29.838Z,4.35
2023-03-10T17:53:58.740Z,4.65
2023-03-10T17:56:25.961Z,5.22
2023-03-10T17:58:54.396Z,4.47
2023-03-10T18:01:23.666Z,4.35
2023-03-10T18:03:50.133Z,4.68
2023-03-10T18:06:19.685Z,4.50
2023-03-10T18:08:46.742Z,4.45
2023-03-10T18:11:13.537Z,4.95
2023-03-10T18:13:40.353Z,4.85
2023-03-10T18:16:08.827Z,5.65
2023-03-10T18:18:35.344Z,6.78
2023-03-10T18:21:02.148Z,5.88
2023-03-10T18:23:28.605Z,5.35
2023-03-10T18:25:55.081Z,5.38
2023-03-10T18:28:23.060Z,5.18
2023-03-10T18:30:51.794Z,3.80
2023-03-10T18:33:18.882Z,4.10
2023-03-10T18:35:48.541Z,4.15
2023-03-10T18:38:17.129Z,3.90
2023-03-10T18:40:44.226Z,3.53
2023-03-10T18:43:10.874Z,3.63
2023-03-10T18:45:39.809Z,3.55
2023-03-10T18:48:07.533Z,4.13
2023-03-10T18:50:33.958Z,3.40
2023-03-10T18:53:00.780Z,3.75
2023-03-10T18:55:27.206Z,3.00
2023-03-10T18:57:53.632Z,3.30
2023-03-10T19:00:21.536Z,4.05
2023-03-10T19:02:50.500Z,3.97
2023-03-10T19:05:16.970Z,4.20
2023-03-10T19:07:43.621Z,4.57
2023-03-10T19:10:13.730Z,3.63
2023-03-10T19:12:41.117Z,3.38
2023-03-10T19:15:09.135Z,3.47
2023-03-10T19:17:37.792Z,4.30
2023-03-10T19:20:07.683Z,3.45
2023-03-10T19:22:35.298Z,3.45
2023-03-10T19:25:03.659Z,2.97
2023-03-10T19:27:30.870Z,3.10
2023-03-10T19:29:57.913Z,3.47
2023-03-10T19:32:26.021Z,3.40
2023-03-10T19:34:52.845Z,3.45
2023-03-10T19:37:20.933Z,4.35
2023-03-10T19:39:47.436Z,3.22
2023-03-10T19:42:13.830Z,3.33
2023-03-10T19:44:40.193Z,3.53
2023-03-10T19:47:06.742Z,5.20
2023-03-10T19:49:34.118Z,3.85
2023-03-10T19:52:01.769Z,3.70
2023-03-10T19:54:28.216Z,3.90
2023-03-10T19:56:54.962Z,3.83
2023-03-10T19:59:21.342Z,4.15
2023-03-10T20:01:49.223Z,4.70
2023-03-10T20:04:16.157Z,5.07
2023-03-10T20:06:42.614Z,4.95
2023-03-10T20:09:10.744Z,5.03
2023-03-10T20:11:39.250Z,4.63
2023-03-10T20:14:06.190Z,4.60
2023-03-10T20:16:38.221Z,3.63
2023-03-10T20:19:04.825Z,3.35
2023-03-10T20:21:31.215Z,3.40
2023-03-10T20:23:58.001Z,3.70
2023-03-10T20:26:24.553Z,2.78
2023-03-10T20:28:51.349Z,3.15
2023-03-10T20:31:20.995Z,2.55
2023-03-10T20:33:48.508Z,2.60
2023-03-10T20:36:15.841Z,2.67
2023-03-10T20:38:44.112Z,2.70
2023-03-10T20:41:15.757Z,2.80
2023-03-10T20:43:43.473Z,3.67
2023-03-10T20:46:10.527Z,4.03
2023-03-10T20:48:37.295Z,3.83
2023-03-10T20:51:04.447Z,3.78
2023-03-10T20:53:33.481Z,4.25
2023-03-10T20:56:00.753Z,4.10
2023-03-10T20:58:27.755Z,4.80
2023-03-10T21:00:54.207Z,4.75
2023-03-10T21:03:23.569Z,5.45
2023-03-10T21:05:50.094Z,4.82
2023-03-10T21:08:16.609Z,5.65
2023-03-10T21:10:44.699Z,4.90
2023-03-10T21:13:11.722Z,5.78
2023-03-10T21:15:39.848Z,4.97
2023-03-10T21:18:06.525Z,5.72
2023-03-10T21:20:34.325Z,4.95
2023-03-10T21:23:00.794Z,5.93
2023-03-10T21:25:28.257Z,6.50
2023-03-10T21:27:58.950Z,5.38
2023-03-10T21:30:30.442Z,5.53
2023-03-10T21:32:58.385Z,6.22
2023-03-10T21:35:26.493Z,6.18
2023-03-10T21:37:55.564Z,3.97
2023-03-10T21:40:24.072Z,5.20
2023-03-10T21:42:51.135Z,5.70
2023-03-10T21:45:21.498Z,5.22
2023-03-10T21:47:48.368Z,5.55
2023-03-10T21:50:17.617Z,5.88
2023-03-10T21:52:44.348Z,5.15
2023-03-10T21:55:19.478Z,5.55
2023-03-10T22:00:15.091Z,5.55
2023-03-10T22:02:42.375Z,5.65
2023-03-10T22:05:12.523Z,5.25
2023-03-10T22:07:39.472Z,5.65
2023-03-10T22:10:07.319Z,5.03
2023-03-10T22:12:34.128Z,4.90
2023-03-10T22:15:00.745Z,4.32
2023-03-10T22:17:29.412Z,4.35
2023-03-10T22:19:56.012Z,4.57
2023-03-10T22:22:22.981Z,4.72
2023-03-10T22:24:49.731Z,4.43
2023-03-10T22:27:17.190Z,3.53
2023-03-10T22:29:43.786Z,4.30
2023-03-10T22:32:10.794Z,4.20
2023-03-10T22:34:37.715Z,3.40
2023-03-10T22:37:04.291Z,4.00
2023-03-10T22:39:31.274Z,3.42
2023-03-10T22:41:57.663Z,3.15
2023-03-10T22:44:24.819Z,3.08
2023-03-10T22:46:51.319Z,3.70
2023-03-10T22:49:19.421Z,3.15
2023-03-10T22:51:45.843Z,3.38
2023-03-10T22:54:12.718Z,3.60
2023-03-10T22:56:39.116Z,3.90
2023-03-10T22:59:05.885Z,4.15
2023-03-10T23:01:32.457Z,3.72
2023-03-10T23:03:59.307Z,4.13
2023-03-10T23:06:28.944Z,3.45
2023-03-10T23:08:59.226Z,4.28
2023-03-10T23:11:26.260Z,3.70
2023-03-10T23:13:53.308Z,3.75
2023-03-10T23:16:19.930Z,3.65
2023-03-10T23:18:47.010Z,3.40
2023-03-10T23:21:14.208Z,3.83
2023-03-10T23:23:43.654Z,3.83
2023-03-10T23:26:11.618Z,3.47
2023-03-10T23:28:38.567Z,3.33
2023-03-10T23:31:05.713Z,3.45
2023-03-10T23:33:32.347Z,3.22
2023-03-10T23:35:58.903Z,3.25
2023-03-10T23:38:26.171Z,2.78
2023-03-10T23:40:53.703Z,3.03
2023-03-10T23:43:20.144Z,3.30
2023-03-10T23:45:47.170Z,3.47
2023-03-10T23:48:16.749Z,3.60
2023-03-10T23:50:45.423Z,3.22
2023-03-10T23:53:14.237Z,3.42
2023-03-10T23:55:43.834Z,3.30
2023-03-10T23:58:11.932Z,2.90
